Flight Track Log - Related Links

Times and Time Zones

All times are in EST time to prevent confusion due to time zone crossing. See the N335R flight status page for this flight to view local times or setup timezone preferences in your user account.

Time Position Orientation Groundspeed Altitude Reporting Facility
EST Latitude Longitude Course Direction KTS MPH feet Rate Location/Type
Mon 02:11:26 PM 27.4919 -80.3522 344° North 170 196 600  Level Miami Center
Mon 02:12:26 PM 27.4697 -80.3328 142° Southeast 134 154 1,300 600 Climbing Miami Center
Mon 02:13:00 PM 27.7111 -80.5041 339° North  Level Estimated
Mon 02:13:26 PM 27.4514 -80.3089 131° Southeast 109 125 1,800  Level Miami Center
Mon 02:14:00 PM 27.7501 -80.5170 344° North  Level FlightAware Approximate
Mon 02:14:26 PM 27.4847 -80.3075 North 52 60 2,400  Level Miami Center
Mon 02:15:00 PM 27.7890 -80.5299 344° North  Level FlightAware Approximate
Mon 02:15:26 PM 27.5158 -80.3247 334° Northwest 102 117 2,900  Level Miami Center
Mon 02:16:00 PM 27.8279 -80.5428 344° North  Level FlightAware Approximate
Mon 02:16:26 PM 27.5486 -80.3422 335° Northwest 125 144 3,300  Level Miami Center
Mon 02:17:27 PM 27.5797 -80.3572 337° Northwest 132 152 3,800 450 Climbing Miami Center
Mon 02:18:26 PM 27.6125 -80.3744 335° Northwest 132 152 4,200 454 Climbing Miami Center
Mon 02:19:26 PM 27.6497 -80.3944 335° Northwest 132 152 4,700 500 Climbing Miami Center
Mon 02:20:26 PM 27.6828 -80.4119 335° Northwest 132 152 5,200 500 Climbing Miami Center
Mon 02:21:26 PM 27.7136 -80.4292 334° Northwest 132 152 5,700 500 Climbing Miami Center
Mon 02:22:26 PM 27.7383 -80.4442 332° Northwest 122 140 6,200 450 Climbing Miami Center
Mon 02:23:26 PM 27.7650 -80.4592 334° Northwest 110 127 6,600 277 Climbing Miami Center
Mon 02:25:41 PM 27.8333 -80.4833 343° North 136 157 7,100 92 Climbing Orlando TRACON
Mon 02:26:41 PM 27.8833 -80.5167 329° Northwest 154 177 6,900 -100 Descending Orlando TRACON
Mon 02:27:41 PM 27.9167 -80.5333 336° Northwest 158 182 6,900  Level Orlando TRACON
Mon 02:28:41 PM 27.9500 -80.5500 336° Northwest 152 175 6,900  Level Orlando TRACON
Mon 02:29:36 PM 27.9833 -80.5667 336° Northwest 152 175 6,900  Level Orlando TRACON
Mon 02:30:36 PM 28.0333 -80.6000 330° Northwest 153 176 6,900  Level Orlando TRACON
Mon 02:31:42 PM 28.0667 -80.6167 336° Northwest 154 177 6,900  Level Orlando TRACON
Mon 02:32:42 PM 28.1167 -80.6333 344° North 158 182 6,900  Level Orlando TRACON
Mon 02:33:42 PM 28.1500 -80.6500 336° Northwest 157 181 6,900  Level Orlando TRACON
Mon 02:34:43 PM 28.1833 -80.6667 336° Northwest 153 176 6,900  Level Orlando TRACON
Mon 02:35:43 PM 28.2333 -80.6833 344° North 156 180 6,900  Level Orlando TRACON
Mon 02:36:43 PM 28.2667 -80.7000 336° Northwest 154 177 6,900  Level Orlando TRACON
Mon 02:37:43 PM 28.3167 -80.7167 344° North 155 178 6,900  Level Orlando TRACON
Mon 02:38:44 PM 28.3500 -80.7333 336° Northwest 151 174 6,900  Level Orlando TRACON
Mon 02:39:50 PM 28.4000 -80.7500 344° North 155 178 6,900  Level Orlando TRACON
Mon 02:40:50 PM 28.4333 -80.7667 336° Northwest 155 178 6,900  Level Orlando TRACON
Mon 02:41:50 PM 28.4833 -80.7833 344° North 153 176 6,900  Level Orlando TRACON
Mon 02:42:50 PM 28.5167 -80.8000 336° Northwest 155 178 6,900  Level Orlando TRACON
Mon 02:43:45 PM 28.5500 -80.8167 336° Northwest 156 180 6,900  Level Orlando TRACON
Mon 02:44:45 PM 28.6000 -80.8333 344° North 157 181 6,900  Level Orlando TRACON
Mon 02:45:39 PM 28.6333 -80.8500 336° Northwest 157 181 6,900  Level Orlando TRACON
Mon 02:46:39 PM 28.6833 -80.8667 344° North 156 180 6,900  Level Orlando TRACON
Mon 02:47:39 PM 28.7167 -80.8833 336° Northwest 154 177 6,900  Level Orlando TRACON
Mon 02:48:40 PM 28.7500 -80.9000 336° Northwest 156 180 6,900  Level Orlando TRACON
Mon 02:49:34 PM 28.8000 -80.9167 344° North 157 181 6,900  Level Orlando TRACON
Mon 02:50:34 PM 28.8333 -80.9167 360° North 153 176 6,900  Level Orlando TRACON
Mon 02:51:50 PM 28.8844 -80.9481 332° Northwest 155 178 6,900  Level Jacksonville Center
Mon 02:52:51 PM 28.9286 -80.9664 340° North 154 177 6,900  Level Jacksonville Center
Mon 02:53:46 PM 28.9664 -80.9797 343° North 155 178 6,900  Level Jacksonville Center
Mon 02:54:47 PM 29.0061 -80.9981 338° Northwest 156 180 6,900  Level Jacksonville Center
Mon 02:55:48 PM 29.0481 -81.0139 342° North 157 181 6,900  Level Jacksonville Center
Mon 02:56:49 PM 29.0903 -81.0319 340° North 158 182 6,900  Level Jacksonville Center
Mon 02:57:50 PM 29.1322 -81.0478 342° North 158 182 6,900  Level Jacksonville Center
Mon 02:58:51 PM 29.1742 -81.0636 342° North 160 184 6,900  Level Jacksonville Center
Mon 02:59:52 PM 29.2161 -81.0819 339° North 157 181 6,900  Level Jacksonville Center
Mon 03:00:53 PM 29.2581 -81.0978 342° North 159 183 6,900  Level Jacksonville Center
Mon 03:01:54 PM 29.3022 -81.1161 340° North 161 185 6,900  Level Jacksonville Center
Mon 03:02:55 PM 29.3442 -81.1319 342° North 161 185 6,900  Level Jacksonville Center
Mon 03:03:56 PM 29.3861 -81.1481 341° North 162 186 6,900  Level Jacksonville Center
Mon 03:04:57 PM 29.4344 -81.1639 344° North 162 186 6,900  Level Jacksonville Center
Mon 03:05:58 PM 29.4742 -81.1822 338° Northwest 160 184 6,900  Level Jacksonville Center
Mon 03:06:59 PM 29.5183 -81.1981 343° North 161 185 6,900  Level Jacksonville Center
Mon 03:08:00 PM 29.5561 -81.2117 343° North 159 183 6,900  Level Jacksonville Center
Mon 03:09:01 PM 29.6022 -81.2325 339° North 158 182 6,900  Level Jacksonville Center
Mon 03:10:02 PM 29.6464 -81.2461 345° North 157 181 6,900  Level Jacksonville Center
Mon 03:10:18 PM 29.6547 -81.2508 334° Northwest 156 180 6,900  Level Jacksonville Center
Mon 03:10:55 PM 29.6778 -81.2575 346° North 155 178 6,900  Level Jacksonville Center
Mon 03:11:56 PM 29.7219 -81.2758 340° North 156 180 6,900  Level Jacksonville Center
Mon 03:12:57 PM 29.7639 -81.2919 342° North 159 183 6,900  Level Jacksonville Center
Mon 03:13:58 PM 29.8058 -81.3081 342° North 158 182 6,900  Level Jacksonville Center
Mon 03:14:59 PM 29.8478 -81.3217 344° North 158 182 6,900  Level Jacksonville Center
Mon 03:16:00 PM 29.8917 -81.3400 340° North 157 181 6,900  Level Jacksonville Center
Mon 03:17:01 PM 29.9358 -81.3561 342° North 161 185 6,900  Level Jacksonville Center
Mon 03:18:02 PM 29.9756 -81.3747 338° Northwest 158 182 6,900  Level Jacksonville Center
Mon 03:19:03 PM 30.0197 -81.3886 345° North 159 183 6,900  Level Jacksonville Center
Mon 03:20:04 PM 30.0594 -81.4069 338° Northwest 157 181 6,900  Level Jacksonville Center
Mon 03:21:05 PM 30.0994 -81.4281 335° Northwest 156 180 6,900  Level Jacksonville Center
Mon 03:22:06 PM 30.1414 -81.4514 334° Northwest 157 181 6,900  Level Jacksonville Center
Mon 03:23:07 PM 30.1833 -81.4556 355° North 146 168 6,900  Level Jacksonville Center
Mon 03:24:08 PM 30.2272 -81.4694 345° North 161 185 6,900  Level Jacksonville Center
Mon 03:25:09 PM 30.2692 -81.4856 342° North 157 181 6,900  Level Jacksonville Center
Mon 03:26:10 PM 30.3111 -81.5042 339° North 158 182 6,900  Level Jacksonville Center
Mon 03:27:11 PM 30.3511 -81.5228 338° Northwest 165 190 6,900  Level Jacksonville Center
Mon 03:28:12 PM 30.3869 -81.5561 321° Northwest 158 182 6,900  Level Jacksonville Center
Mon 03:29:13 PM 30.4228 -81.5844 326° Northwest 157 181 6,900  Level Jacksonville Center
Mon 03:30:14 PM 30.4583 -81.6153 323° Northwest 157 181 6,900  Level Jacksonville Center
Mon 03:31:15 PM 30.4942 -81.6439 325° Northwest 158 182 6,900  Level Jacksonville Center
Mon 03:32:16 PM 30.5322 -81.6769 323° Northwest 162 186 6,900  Level Jacksonville Center
Mon 03:33:17 PM 30.5658 -81.7081 321° Northwest 157 181 6,900  Level Jacksonville Center
Mon 03:34:18 PM 30.6017 -81.7389 323° Northwest 158 182 6,900  Level Jacksonville Center
Mon 03:35:19 PM 30.6394 -81.7675 327° Northwest 162 186 6,900  Level Jacksonville Center
Mon 03:36:20 PM 30.6731 -81.7983 322° Northwest 157 181 6,900  Level Jacksonville Center
Mon 03:37:21 PM 30.7131 -81.8342 322° Northwest 158 182 6,900 -70 Level Jacksonville Center
Mon 03:37:46 PM 30.7258 -81.8439 327° Northwest 160 184 6,800  Descending Jacksonville Center
Mon 03:38:22 PM 30.7489 -81.8628 325° Northwest 156 180 6,900  Climbing Jacksonville Center
Mon 03:38:46 PM 30.7594 -81.8747 316° Northwest 160 184 6,800  Descending Jacksonville Center
Mon 03:39:23 PM 30.7844 -81.8939 327° Northwest 157 181 6,900  Climbing Jacksonville Center
Mon 03:39:46 PM 30.7950 -81.9033 322° Northwest 160 184 6,800  Descending Jacksonville Center
Mon 03:40:24 PM 30.8161 -81.9225 322° Northwest 160 184 6,900  Climbing Jacksonville Center
Mon 03:40:46 PM 30.8308 -81.9344 325° Northwest 157 181 6,800  Descending Jacksonville Center
Mon 03:41:25 PM 30.8519 -81.9511 326° Northwest 153 176 6,900  Climbing Jacksonville Center
Mon 03:41:46 PM 30.8644 -81.9656 315° West 157 181 6,800 -74 Descending Jacksonville Center
Mon 03:42:46 PM 30.9003 -81.9944 325° Northwest 162 186 6,800  Level Jacksonville Center
Mon 03:43:46 PM 30.9358 -82.0256 323° Northwest 162 186 6,800  Level Jacksonville Center
Mon 03:44:46 PM 30.9717 -82.0567 323° Northwest 157 181 6,800  Level Jacksonville Center
Mon 03:45:46 PM 31.0072 -82.0878 323° Northwest 157 181 6,800  Level Jacksonville Center
Mon 03:46:46 PM 31.0408 -82.1167 324° Northwest 157 181 6,800  Level Jacksonville Center
Mon 03:47:46 PM 31.0767 -82.1456 325° Northwest 157 181 6,800  Level Jacksonville Center
Mon 03:48:46 PM 31.1122 -82.1767 323° Northwest 157 181 6,800  Level Jacksonville Center
Mon 03:49:46 PM 31.1478 -82.2081 323° Northwest 157 181 6,800 -50 Level Jacksonville Center
Mon 03:50:46 PM 31.1814 -82.2394 321° Northwest 157 181 6,700 -100 Descending Jacksonville Center
Mon 03:51:46 PM 31.2172 -82.2706 323° Northwest 157 181 6,600 -100 Descending Jacksonville Center
Mon 03:52:46 PM 31.2528 -82.2997 325° Northwest 157 181 6,500 -100 Descending Jacksonville Center
Mon 03:53:46 PM 31.2883 -82.3311 323° Northwest 157 181 6,400 -100 Descending Jacksonville Center
Mon 03:54:46 PM 31.3239 -82.3625 323° Northwest 157 181 6,300 -100 Descending Jacksonville Center
Mon 03:55:46 PM 31.3511 -82.3867 323° Northwest 157 181 6,200 -50 Descending Jacksonville Center
Mon 03:56:46 PM 31.3953 -82.4181 329° Northwest 163 188 6,200 -50 Level Jacksonville Center
Mon 03:57:46 PM 31.4308 -82.4494 323° Northwest 163 188 6,100 -100 Descending Jacksonville Center
Mon 03:58:46 PM 31.4664 -82.4808 323° Northwest 163 188 6,000 -100 Descending Jacksonville Center
Mon 03:59:46 PM 31.5019 -82.5125 323° Northwest 158 182 5,900 -50 Descending Jacksonville Center
Mon 04:00:46 PM 31.5356 -82.5439 321° Northwest 158 182 5,900  Level Jacksonville Center
Mon 04:01:46 PM 31.5711 -82.5756 323° Northwest 158 182 5,900  Level Jacksonville Center
Mon 04:02:46 PM 31.6044 -82.6047 323° Northwest 158 182 5,900  Level Jacksonville Center
Mon 04:03:46 PM 31.6422 -82.6364 324° Northwest 158 182 5,900  Level Jacksonville Center
Mon 04:04:46 PM 31.6778 -82.6681 323° Northwest 158 182 5,900  Level Jacksonville Center
Mon 04:05:46 PM 31.7133 -82.6997 323° Northwest 158 182 5,900  Level Jacksonville Center
Mon 04:06:46 PM 31.7489 -82.7339 321° Northwest 163 188 5,900  Level Jacksonville Center
Mon 04:07:46 PM 31.7864 -82.7656 324° Northwest 163 188 5,900  Level Jacksonville Center
Mon 04:08:46 PM 31.8219 -82.7997 321° Northwest 163 188 5,900  Level Jacksonville Center
Mon 04:09:46 PM 31.8575 -82.8314 323° Northwest 158 182 5,900  Level Jacksonville Center
Mon 04:10:46 PM 31.8950 -82.8608 326° Northwest 158 182 5,900  Level Jacksonville Center
Mon 04:11:46 PM 31.9306 -82.8925 323° Northwest 158 182 5,900  Level Jacksonville Center
Mon 04:12:46 PM 31.9661 -82.9269 321° Northwest 158 182 5,900  Level Jacksonville Center
Mon 04:13:46 PM 32.0017 -82.9564 325° Northwest 158 182 5,900  Level Jacksonville Center
Mon 04:16:06 PM 32.0833 -83.0333 321° Northwest 159 183 5,900  Level Atlanta TRACON
Mon 04:17:06 PM 32.1167 -83.0667 320° Northwest 159 183 5,900  Level Atlanta TRACON
Mon 04:18:06 PM 32.1667 -83.1000 331° Northwest 161 185 5,900  Level Atlanta TRACON
Mon 04:19:06 PM 32.2000 -83.1333 320° Northwest 160 184 5,900  Level Atlanta TRACON
Mon 04:20:06 PM 32.2333 -83.1500 337° Northwest 160 184 5,900  Level Atlanta TRACON
Mon 04:21:06 PM 32.2667 -83.2000 308° West 159 183 5,900  Level Atlanta TRACON
Mon 04:22:06 PM 32.3000 -83.2167 337° Northwest 158 182 5,900  Level Atlanta TRACON
Mon 04:23:06 PM 32.3333 -83.2500 320° Northwest 159 183 5,900  Level Atlanta TRACON
Mon 04:24:06 PM 32.3667 -83.2833 320° Northwest 162 186 5,900  Level Atlanta TRACON
Mon 04:25:06 PM 32.4000 -83.3167 320° Northwest 160 184 5,900  Level Atlanta TRACON
Mon 04:26:06 PM 32.4500 -83.3500 331° Northwest 159 183 5,900  Level Atlanta TRACON
Mon 04:27:06 PM 32.4833 -83.3833 320° Northwest 160 184 5,900  Level Atlanta TRACON
Mon 04:28:06 PM 32.5167 -83.4167 320° Northwest 159 183 5,900  Level Atlanta TRACON
Mon 04:29:06 PM 32.5500 -83.4500 320° Northwest 160 184 5,900  Level Atlanta TRACON
Mon 04:30:06 PM 32.5833 -83.4833 320° Northwest 159 183 5,900  Level Atlanta TRACON
Mon 04:31:06 PM 32.6167 -83.5167 320° Northwest 157 181 5,900  Level Atlanta TRACON
Mon 04:32:06 PM 32.6667 -83.5167 360° North 165 190 5,900  Level Atlanta TRACON
Mon 04:33:06 PM 32.7167 -83.5333 344° North 166 191 5,900  Level Atlanta TRACON
Mon 04:34:06 PM 32.7500 -83.5333 360° North 167 192 5,900  Level Atlanta TRACON
Mon 04:35:06 PM 32.8000 -83.5500 344° North 166 191 5,900  Level Atlanta TRACON
Mon 04:36:06 PM 32.8500 -83.5500 360° North 165 190 5,900  Level Atlanta TRACON
Mon 04:37:06 PM 32.9000 -83.5667 344° North 165 190 5,900  Level Atlanta TRACON
Mon 04:38:06 PM 32.9333 -83.5667 360° North 164 189 5,900  Level Atlanta TRACON
Mon 04:39:06 PM 32.9833 -83.5833 344° North 164 189 5,900  Level Atlanta TRACON
Mon 04:40:06 PM 33.0333 -83.5833 360° North 163 188 5,900  Level Atlanta TRACON
Mon 04:41:06 PM 33.0667 -83.6000 337° Northwest 165 190 5,900  Level Atlanta TRACON
Mon 04:42:06 PM 33.1167 -83.6167 344° North 165 190 5,900  Level Atlanta TRACON
Mon 04:43:07 PM 33.1667 -83.6167 360° North 163 188 5,900  Level Atlanta TRACON
Mon 04:44:06 PM 33.2000 -83.6333 337° Northwest 163 188 5,900  Level Atlanta TRACON
Mon 04:45:06 PM 33.2500 -83.6333 360° North 162 186 5,900  Level Atlanta TRACON
Mon 04:46:06 PM 33.3000 -83.6500 344° North 162 186 5,900  Level Atlanta TRACON
Mon 04:47:06 PM 33.3333 -83.6667 337° Northwest 159 183 5,900  Level Atlanta TRACON
Mon 04:48:12 PM 33.3833 -83.7000 331° Northwest 160 184 5,900  Level Atlanta TRACON
Mon 04:49:06 PM 33.4167 -83.7167 337° Northwest 159 183 5,900  Level Atlanta TRACON
Mon 04:50:06 PM 33.4500 -83.7333 337° Northwest 158 182 5,900  Level Atlanta TRACON
Mon 04:51:06 PM 33.4833 -83.7667 320° Northwest 157 181 5,900  Level Atlanta TRACON
Mon 04:52:06 PM 33.5333 -83.7833 344° North 157 181 5,900  Level Atlanta TRACON
Mon 04:53:06 PM 33.5667 -83.8167 320° Northwest 156 180 5,900  Level Atlanta TRACON
Mon 04:54:06 PM 33.6000 -83.8333 337° Northwest 157 181 5,900  Level Atlanta TRACON
Mon 04:55:06 PM 33.6333 -83.8667 320° Northwest 156 180 5,900  Level Atlanta TRACON
Mon 04:56:06 PM 33.6833 -83.8833 344° North 157 181 5,900  Level Atlanta TRACON
Mon 04:57:06 PM 33.7167 -83.9167 320° Northwest 156 180 5,900 -150 Level Atlanta TRACON
Mon 04:58:06 PM 33.7500 -83.9500 320° Northwest 169 194 5,600 -300 Descending Atlanta TRACON
Mon 04:59:06 PM 33.8000 -83.9833 331° Northwest 177 204 5,300 -350 Descending Atlanta TRACON
Mon 05:00:06 PM 33.8167 -84.0333 292° West 176 203 4,900 -446 Descending Atlanta TRACON
Mon 05:01:07 PM 33.8333 -84.0833 292° West 179 206 4,400 -446 Descending Atlanta TRACON
Mon 05:02:07 PM 33.8500 -84.1500 287° West 183 211 4,000 -250 Descending Atlanta TRACON
Mon 05:03:07 PM 33.8500 -84.2000 270° West 173 199 3,900 -50 Descending Atlanta TRACON
Mon 05:04:07 PM 33.8500 -84.2500 270° West 216 249 3,900  Level Atlanta TRACON
Mon 05:05:07 PM 33.8667 -84.3167 287° West 169 194 3,900  Level Atlanta TRACON
Mon 05:06:01 PM 33.8833 -84.3667 292° West 167 192 3,900  Level Atlanta TRACON
Mon 05:07:01 PM 33.8833 -84.4167 270° West 166 191 3,900 -95 Level Atlanta TRACON
Mon 05:08:07 PM 33.8667 -84.4667 248° West 169 194 3,700 -286 Descending Atlanta TRACON
Mon 05:09:07 PM 33.8500 -84.5167 248° West 170 196 3,300 -550 Descending Atlanta TRACON
Mon 05:10:07 PM 33.8333 -84.5667 248° West 126 145 2,600 -700 Descending Atlanta TRACON
Mon 05:11:07 PM 33.8000 -84.5667 180° South 110 127 1,900 -650 Descending Atlanta TRACON
Mon 05:12:07 PM 33.7833 -84.5667 180° South 105 121 1,300 -600 Descending Atlanta TRACON
Mon 05:14:00 PM 33.7791 -84.5214 146° Southeast  Level Estimated
Mon 05:21:00 PM 33.7791 -84.5214 337° Northwest  Level Estimated

Login

Don't have an account? Register now (free) for customized features, flight alerts, and more!